map of GEY home
GEY - Airport
Location
City:  Greybull, Wyoming, United States
Name:South Big Horn County Airport
ICAO:KGEY
IATA:GEY
FAA LID:GEY

Details
Type:Airport (Airfield)
Use:Public/Civil
Latitude:4431'05"N (44.517944)
Longitude:10804'59"W (-108.082999)
Datum:WGS 1984
Elevation:3941 ft (1201 m)
Variation:10.22E (WMM2015v2 magnetic declination)
-0.09 annual change
Runways:2
Longest:7003 × 150 ft (2135 × 45.5 m), paved

Time
Time Zone:UTC-7 (DST-6)
Local Time:

Weather
METAR:KGEY 041353Z AUTO 32007KT 10SM OVC017 M17/M19 A2980 RMK AO2 SNB32E47 SLP172 P0000 T11671194

Related Locations
Nearby:
Farthest:RRG: 10655 mi / 17148 km
Plaine Corail [Sir Gatan Duval Airport (Plaine Corail Airport)], Rodrigues Island, MU

Find:

   beyond  
but within

Other Information
Maps:
NOTAMs:
Links:
Sources:

  
  • flag of United States
  • flag of Wyoming
  

Sectional Chart

Flight Planning
at skyvector.com

Satellite Image

Google Maps Satellite view

 

Copyright © 2004-2019 Karl L. Swartz. All rights reserved.
The Great Circle Mapper name and logo are trademarks of the Great Circle Mapper.
All other trademarks mentioned herein belong to their respective owners.
Please see credits for attibutions and further copyright information.

  Follow gcmap on Facebook Follow gcmap on Twitter GCmap on LinkedIn

hCard Microformat

Geo Microformat